sensor_id;sensor_type;location;lat;lon;timestamp;pressure;altitude;pressure_sealevel;temperature;humidity
43155;BME280;34212;51.018;13.586;2023-10-31T00:00:42;95844.78;;;15.61;84.78
43155;BME280;34212;51.018;13.586;2023-10-31T00:05:44;95864.38;;;15.62;84.92
43155;BME280;34212;51.018;13.586;2023-10-31T00:10:46;95873.25;;;15.62;85.04
43155;BME280;34212;51.018;13.586;2023-10-31T00:15:47;95892.31;;;15.61;85.25
43155;BME280;34212;51.018;13.586;2023-10-31T00:20:49;95889.88;;;15.59;85.37
43155;BME280;34212;51.018;13.586;2023-10-31T00:25:50;95902.75;;;15.57;85.49
43155;BME280;34212;51.018;13.586;2023-10-31T00:30:52;95908.66;;;15.54;85.38
43155;BME280;34212;51.018;13.586;2023-10-31T00:35:54;95904.88;;;15.50;85.56
43155;BME280;34212;51.018;13.586;2023-10-31T00:40:55;95900.28;;;15.45;85.47
43155;BME280;34212;51.018;13.586;2023-10-31T00:45:57;95898.38;;;15.46;86.00
43155;BME280;34212;51.018;13.586;2023-10-31T00:50:58;95894.63;;;15.47;85.98
43155;BME280;34212;51.018;13.586;2023-10-31T00:56:01;95875.81;;;15.47;85.82
43155;BME280;34212;51.018;13.586;2023-10-31T01:01:02;95865.09;;;15.47;86.16
43155;BME280;34212;51.018;13.586;2023-10-31T01:06:04;95848.16;;;15.46;86.19
43155;BME280;34212;51.018;13.586;2023-10-31T01:11:06;95846.28;;;15.47;86.17
43155;BME280;34212;51.018;13.586;2023-10-31T01:16:07;95853.78;;;15.45;86.45
43155;BME280;34212;51.018;13.586;2023-10-31T01:21:09;95865.59;;;15.44;86.51
43155;BME280;34212;51.018;13.586;2023-10-31T01:26:11;95857.53;;;15.44;86.19
43155;BME280;34212;51.018;13.586;2023-10-31T01:31:12;95859.41;;;15.43;86.63
43155;BME280;34212;51.018;13.586;2023-10-31T01:36:14;95850.00;;;15.41;86.63
43155;BME280;34212;51.018;13.586;2023-10-31T01:41:15;95834.41;;;15.38;86.14
43155;BME280;34212;51.018;13.586;2023-10-31T01:46:17;95832.75;;;15.32;86.30
43155;BME280;34212;51.018;13.586;2023-10-31T01:51:19;95832.22;;;15.30;86.16
43155;BME280;34212;51.018;13.586;2023-10-31T01:56:21;95847.19;;;15.25;86.68
43155;BME280;34212;51.018;13.586;2023-10-31T02:01:22;95845.28;;;15.21;86.48
43155;BME280;34212;51.018;13.586;2023-10-31T02:06:24;95834.50;;;15.16;86.40
43155;BME280;34212;51.018;13.586;2023-10-31T02:11:28;95830.22;;;15.15;86.62
43155;BME280;34212;51.018;13.586;2023-10-31T02:16:29;95846.03;;;15.16;87.18
43155;BME280;34212;51.018;13.586;2023-10-31T02:21:32;95849.03;;;15.20;86.94
43155;BME280;34212;51.018;13.586;2023-10-31T02:26:34;95859.53;;;15.21;86.80
43155;BME280;34212;51.018;13.586;2023-10-31T02:31:36;95874.56;;;15.22;87.35
43155;BME280;34212;51.018;13.586;2023-10-31T02:36:37;95865.13;;;15.20;86.95
43155;BME280;34212;51.018;13.586;2023-10-31T02:41:39;95862.44;;;15.15;87.03
43155;BME280;34212;51.018;13.586;2023-10-31T02:46:41;95870.66;;;15.03;87.16
43155;BME280;34212;51.018;13.586;2023-10-31T02:51:43;95869.75;;;14.92;87.43
43155;BME280;34212;51.018;13.586;2023-10-31T02:56:45;95868.38;;;14.90;87.95
43155;BME280;34212;51.018;13.586;2023-10-31T03:01:46;95875.31;;;14.86;88.04
43155;BME280;34212;51.018;13.586;2023-10-31T03:06:48;95875.28;;;14.81;87.88
43155;BME280;34212;51.018;13.586;2023-10-31T03:11:49;95882.69;;;14.73;88.48
43155;BME280;34212;51.018;13.586;2023-10-31T03:16:51;95872.44;;;14.65;88.49
43155;BME280;34212;51.018;13.586;2023-10-31T03:21:53;95861.34;;;14.57;88.36
43155;BME280;34212;51.018;13.586;2023-10-31T03:26:54;95851.28;;;14.47;88.48
43155;BME280;34212;51.018;13.586;2023-10-31T03:31:56;95844.44;;;14.34;88.69
43155;BME280;34212;51.018;13.586;2023-10-31T03:36:58;95848.63;;;14.25;89.26
43155;BME280;34212;51.018;13.586;2023-10-31T03:42:00;95849.06;;;14.17;89.51
43155;BME280;34212;51.018;13.586;2023-10-31T03:47:01;95845.97;;;14.03;89.30
43155;BME280;34212;51.018;13.586;2023-10-31T03:52:03;95845.25;;;13.91;89.82
43155;BME280;34212;51.018;13.586;2023-10-31T03:57:05;95842.78;;;13.84;90.40
43155;BME280;34212;51.018;13.586;2023-10-31T04:02:06;95837.34;;;13.79;90.44
43155;BME280;34212;51.018;13.586;2023-10-31T04:07:08;95829.00;;;13.75;90.77
43155;BME280;34212;51.018;13.586;2023-10-31T04:12:11;95817.16;;;13.71;91.42
43155;BME280;34212;51.018;13.586;2023-10-31T04:17:12;95821.38;;;13.67;91.72
43155;BME280;34212;51.018;13.586;2023-10-31T04:22:14;95832.09;;;13.67;92.00
43155;BME280;34212;51.018;13.586;2023-10-31T04:27:15;95857.25;;;13.66;91.95
43155;BME280;34212;51.018;13.586;2023-10-31T04:32:17;95868.47;;;13.63;91.89
43155;BME280;34212;51.018;13.586;2023-10-31T04:37:18;95877.56;;;13.62;91.89
43155;BME280;34212;51.018;13.586;2023-10-31T04:42:20;95880.25;;;13.62;92.00
43155;BME280;34212;51.018;13.586;2023-10-31T04:47:22;95895.81;;;13.65;91.77
43155;BME280;34212;51.018;13.586;2023-10-31T04:52:23;95886.50;;;13.68;92.28
43155;BME280;34212;51.018;13.586;2023-10-31T04:57:27;95907.44;;;13.71;92.13
43155;BME280;34212;51.018;13.586;2023-10-31T05:02:28;95900.25;;;13.76;92.70
43155;BME280;34212;51.018;13.586;2023-10-31T05:07:30;95901.41;;;13.80;92.35
43155;BME280;34212;51.018;13.586;2023-10-31T05:12:34;95906.00;;;13.85;92.63
43155;BME280;34212;51.018;13.586;2023-10-31T05:17:35;95912.16;;;13.85;92.00
43155;BME280;34212;51.018;13.586;2023-10-31T05:22:37;95907.97;;;13.90;92.43
43155;BME280;34212;51.018;13.586;2023-10-31T05:27:39;95910.88;;;13.88;91.74
43155;BME280;34212;51.018;13.586;2023-10-31T05:32:40;95918.91;;;13.88;91.89
43155;BME280;34212;51.018;13.586;2023-10-31T05:37:42;95930.94;;;13.85;91.34
43155;BME280;34212;51.018;13.586;2023-10-31T05:42:44;95944.31;;;13.85;92.18
43155;BME280;34212;51.018;13.586;2023-10-31T05:47:45;95953.75;;;13.88;92.39
43155;BME280;34212;51.018;13.586;2023-10-31T05:52:47;95948.16;;;13.90;92.21
43155;BME280;34212;51.018;13.586;2023-10-31T05:57:49;95957.22;;;13.89;92.13
43155;BME280;34212;51.018;13.586;2023-10-31T06:02:50;95962.03;;;13.86;92.13
43155;BME280;34212;51.018;13.586;2023-10-31T06:07:52;95975.94;;;13.83;91.90
43155;BME280;34212;51.018;13.586;2023-10-31T06:12:53;95991.44;;;13.81;91.66
43155;BME280;34212;51.018;13.586;2023-10-31T06:17:55;96004.03;;;13.81;92.02
43155;BME280;34212;51.018;13.586;2023-10-31T06:22:56;96027.81;;;13.77;91.37
43155;BME280;34212;51.018;13.586;2023-10-31T06:27:58;96030.97;;;13.74;91.00
43155;BME280;34212;51.018;13.586;2023-10-31T06:33:00;96039.50;;;13.71;91.17
43155;BME280;34212;51.018;13.586;2023-10-31T06:38:01;96057.09;;;13.67;91.66
43155;BME280;34212;51.018;13.586;2023-10-31T06:43:03;96064.56;;;13.65;91.88
43155;BME280;34212;51.018;13.586;2023-10-31T06:48:05;96079.84;;;13.65;91.47
43155;BME280;34212;51.018;13.586;2023-10-31T06:53:08;96088.09;;;13.63;91.17
43155;BME280;34212;51.018;13.586;2023-10-31T06:58:10;96085.31;;;13.58;91.11
43155;BME280;34212;51.018;13.586;2023-10-31T07:03:11;96092.09;;;13.49;90.71
43155;BME280;34212;51.018;13.586;2023-10-31T07:08:16;96099.97;;;13.38;91.06
43155;BME280;34212;51.018;13.586;2023-10-31T07:13:18;96100.09;;;13.32;90.95
43155;BME280;34212;51.018;13.586;2023-10-31T07:18:19;96100.84;;;13.27;90.75
43155;BME280;34212;51.018;13.586;2023-10-31T07:23:21;96112.22;;;13.23;90.55
43155;BME280;34212;51.018;13.586;2023-10-31T07:28:23;96124.78;;;13.22;90.40
43155;BME280;34212;51.018;13.586;2023-10-31T07:33:25;96134.81;;;13.27;90.16
43155;BME280;34212;51.018;13.586;2023-10-31T07:38:27;96145.03;;;13.30;89.56
43155;BME280;34212;51.018;13.586;2023-10-31T07:43:28;96149.03;;;13.27;89.08
43155;BME280;34212;51.018;13.586;2023-10-31T07:48:30;96137.47;;;13.27;88.65
43155;BME280;34212;51.018;13.586;2023-10-31T07:53:32;96128.41;;;13.28;88.23
43155;BME280;34212;51.018;13.586;2023-10-31T07:58:34;96144.94;;;13.25;88.09
43155;BME280;34212;51.018;13.586;2023-10-31T08:03:39;96166.56;;;13.23;87.27
43155;BME280;34212;51.018;13.586;2023-10-31T08:08:42;96170.97;;;13.17;86.16
43155;BME280;34212;51.018;13.586;2023-10-31T08:13:43;96176.25;;;13.12;86.60
43155;BME280;34212;51.018;13.586;2023-10-31T08:18:45;96186.84;;;13.07;85.92
43155;BME280;34212;51.018;13.586;2023-10-31T08:23:47;96189.28;;;13.09;86.28
43155;BME280;34212;51.018;13.586;2023-10-31T08:28:48;96195.91;;;13.18;86.38
43155;BME280;34212;51.018;13.586;2023-10-31T08:33:50;96193.94;;;13.25;85.87
43155;BME280;34212;51.018;13.586;2023-10-31T08:38:51;96197.53;;;13.31;86.73
43155;BME280;34212;51.018;13.586;2023-10-31T08:43:53;96208.34;;;13.36;85.77
43155;BME280;34212;51.018;13.586;2023-10-31T08:48:55;96209.25;;;13.42;86.18
43155;BME280;34212;51.018;13.586;2023-10-31T08:53:56;96217.97;;;13.49;86.08
43155;BME280;34212;51.018;13.586;2023-10-31T08:58:58;96220.28;;;13.57;85.91
43155;BME280;34212;51.018;13.586;2023-10-31T09:03:59;96232.50;;;13.65;86.37
43155;BME280;34212;51.018;13.586;2023-10-31T09:09:02;96238.28;;;13.73;86.51
43155;BME280;34212;51.018;13.586;2023-10-31T09:14:05;96223.38;;;13.77;86.21
43155;BME280;34212;51.018;13.586;2023-10-31T09:19:06;96232.91;;;13.85;86.75
43155;BME280;34212;51.018;13.586;2023-10-31T09:24:09;96239.28;;;13.96;86.68
43155;BME280;34212;51.018;13.586;2023-10-31T09:29:11;96255.25;;;13.91;85.59
43155;BME280;34212;51.018;13.586;2023-10-31T09:34:28;96274.84;;;13.79;86.10
43155;BME280;34212;51.018;13.586;2023-10-31T09:39:30;96260.56;;;13.74;85.93
43155;BME280;34212;51.018;13.586;2023-10-31T09:44:32;96254.63;;;13.72;86.02
43155;BME280;34212;51.018;13.586;2023-10-31T09:49:34;96255.69;;;13.71;85.66
43155;BME280;34212;51.018;13.586;2023-10-31T09:54:37;96271.38;;;13.67;84.90
43155;BME280;34212;51.018;13.586;2023-10-31T09:59:39;96293.28;;;13.64;85.39
43155;BME280;34212;51.018;13.586;2023-10-31T10:04:41;96300.75;;;13.62;85.08
43155;BME280;34212;51.018;13.586;2023-10-31T10:09:43;96302.97;;;13.65;84.95
43155;BME280;34212;51.018;13.586;2023-10-31T10:14:45;96312.34;;;13.79;85.25
43155;BME280;34212;51.018;13.586;2023-10-31T10:19:48;96322.00;;;13.92;84.92
43155;BME280;34212;51.018;13.586;2023-10-31T10:24:50;96325.22;;;14.06;84.88
43155;BME280;34212;51.018;13.586;2023-10-31T10:29:53;96321.94;;;14.16;84.74
43155;BME280;34212;51.018;13.586;2023-10-31T10:34:55;96314.34;;;14.24;84.65
43155;BME280;34212;51.018;13.586;2023-10-31T10:39:57;96312.56;;;14.30;84.44
43155;BME280;34212;51.018;13.586;2023-10-31T10:45:06;96302.16;;;14.33;84.02
43155;BME280;34212;51.018;13.586;2023-10-31T10:50:12;96308.56;;;14.32;83.37
43155;BME280;34212;51.018;13.586;2023-10-31T10:55:25;96314.19;;;14.31;82.92
43155;BME280;34212;51.018;13.586;2023-10-31T11:00:26;96303.78;;;14.35;82.37
43155;BME280;34212;51.018;13.586;2023-10-31T11:05:28;96285.13;;;14.40;81.00
43155;BME280;34212;51.018;13.586;2023-10-31T11:10:32;96291.50;;;14.39;80.09
43155;BME280;34212;51.018;13.586;2023-10-31T11:15:34;96308.09;;;14.36;79.72
43155;BME280;34212;51.018;13.586;2023-10-31T11:20:40;96304.94;;;14.39;79.80
43155;BME280;34212;51.018;13.586;2023-10-31T11:25:44;96316.25;;;14.41;79.33
43155;BME280;34212;51.018;13.586;2023-10-31T11:30:53;96330.66;;;14.51;78.77
43155;BME280;34212;51.018;13.586;2023-10-31T11:36:03;96325.66;;;14.55;78.73
43155;BME280;34212;51.018;13.586;2023-10-31T11:41:16;96341.28;;;14.58;79.44
43155;BME280;34212;51.018;13.586;2023-10-31T11:46:25;96351.91;;;14.53;79.24
43155;BME280;34212;51.018;13.586;2023-10-31T11:51:41;96365.75;;;14.50;79.71
43155;BME280;34212;51.018;13.586;2023-10-31T11:56:55;96360.06;;;14.46;80.22
43155;BME280;34212;51.018;13.586;2023-10-31T12:01:58;96358.41;;;14.45;80.61
43155;BME280;34212;51.018;13.586;2023-10-31T12:07:09;96363.31;;;14.48;80.66
43155;BME280;34212;51.018;13.586;2023-10-31T12:12:12;96398.44;;;14.47;80.85
43155;BME280;34212;51.018;13.586;2023-10-31T12:17:23;96406.38;;;14.42;82.37
43155;BME280;34212;51.018;13.586;2023-10-31T12:22:38;96401.25;;;14.40;81.58
43155;BME280;34212;51.018;13.586;2023-10-31T12:27:49;96369.63;;;14.42;81.10
43155;BME280;34212;51.018;13.586;2023-10-31T12:33:02;96377.78;;;14.47;81.04
43155;BME280;34212;51.018;13.586;2023-10-31T12:38:13;96353.41;;;14.49;80.99
43155;BME280;34212;51.018;13.586;2023-10-31T12:43:34;96365.19;;;14.48;80.54
43155;BME280;34212;51.018;13.586;2023-10-31T12:48:42;96411.50;;;14.43;80.85
43155;BME280;34212;51.018;13.586;2023-10-31T12:53:49;96404.16;;;14.39;80.75
43155;BME280;34212;51.018;13.586;2023-10-31T12:58:59;96425.53;;;14.33;81.00
43155;BME280;34212;51.018;13.586;2023-10-31T13:04:23;96417.97;;;14.30;81.38
43155;BME280;34212;51.018;13.586;2023-10-31T13:09:38;96429.03;;;14.22;81.24
43155;BME280;34212;51.018;13.586;2023-10-31T13:14:41;96437.44;;;14.14;80.55
43155;BME280;34212;51.018;13.586;2023-10-31T13:19:49;96445.94;;;14.11;80.17
43155;BME280;34212;51.018;13.586;2023-10-31T13:24:58;96440.84;;;14.09;80.23
43155;BME280;34212;51.018;13.586;2023-10-31T13:30:05;96459.94;;;14.13;80.51
43155;BME280;34212;51.018;13.586;2023-10-31T13:35:10;96475.47;;;13.99;80.84
43155;BME280;34212;51.018;13.586;2023-10-31T13:40:13;96487.81;;;13.65;82.01
43155;BME280;34212;51.018;13.586;2023-10-31T13:45:15;96488.22;;;13.38;82.64
43155;BME280;34212;51.018;13.586;2023-10-31T13:50:21;96502.09;;;13.17;83.45
43155;BME280;34212;51.018;13.586;2023-10-31T13:55:27;96508.44;;;13.04;83.70
43155;BME280;34212;51.018;13.586;2023-10-31T14:00:29;96516.81;;;12.96;83.98
43155;BME280;34212;51.018;13.586;2023-10-31T14:05:31;96516.06;;;12.89;84.47
43155;BME280;34212;51.018;13.586;2023-10-31T14:10:32;96504.69;;;12.93;84.63
43155;BME280;34212;51.018;13.586;2023-10-31T14:15:34;96496.22;;;12.97;83.78
43155;BME280;34212;51.018;13.586;2023-10-31T14:20:35;96492.28;;;12.99;83.76
43155;BME280;34212;51.018;13.586;2023-10-31T14:25:37;96502.28;;;13.04;83.85
43155;BME280;34212;51.018;13.586;2023-10-31T14:30:42;96501.03;;;13.06;83.59
43155;BME280;34212;51.018;13.586;2023-10-31T14:35:43;96501.47;;;13.03;83.22
43155;BME280;34212;51.018;13.586;2023-10-31T14:40:46;96488.09;;;13.03;83.57
43155;BME280;34212;51.018;13.586;2023-10-31T14:45:59;96484.59;;;13.03;83.32
43155;BME280;34212;51.018;13.586;2023-10-31T14:51:04;96501.47;;;13.03;82.73
43155;BME280;34212;51.018;13.586;2023-10-31T14:56:09;96506.38;;;13.06;83.17
43155;BME280;34212;51.018;13.586;2023-10-31T15:01:11;96506.97;;;13.08;83.13
43155;BME280;34212;51.018;13.586;2023-10-31T15:06:14;96520.09;;;13.10;83.48
43155;BME280;34212;51.018;13.586;2023-10-31T15:11:23;96524.88;;;13.08;82.82
43155;BME280;34212;51.018;13.586;2023-10-31T15:16:28;96526.59;;;13.02;83.01
43155;BME280;34212;51.018;13.586;2023-10-31T15:21:33;96532.16;;;13.01;83.16
43155;BME280;34212;51.018;13.586;2023-10-31T15:26:35;96538.34;;;13.01;83.03
43155;BME280;34212;51.018;13.586;2023-10-31T15:31:45;96550.91;;;13.01;82.83
43155;BME280;34212;51.018;13.586;2023-10-31T15:36:56;96555.81;;;13.04;83.49
43155;BME280;34212;51.018;13.586;2023-10-31T15:41:58;96565.91;;;13.02;83.14
43155;BME280;34212;51.018;13.586;2023-10-31T15:47:00;96569.88;;;12.99;82.99
43155;BME280;34212;51.018;13.586;2023-10-31T15:52:02;96571.72;;;12.99;83.07
43155;BME280;34212;51.018;13.586;2023-10-31T15:57:06;96590.44;;;12.99;82.91
43155;BME280;34212;51.018;13.586;2023-10-31T16:02:11;96598.03;;;13.02;83.15
43155;BME280;34212;51.018;13.586;2023-10-31T16:07:15;96604.34;;;13.07;83.19
43155;BME280;34212;51.018;13.586;2023-10-31T16:12:21;96608.44;;;13.10;83.17
43155;BME280;34212;51.018;13.586;2023-10-31T16:17:26;96623.69;;;13.09;83.51
43155;BME280;34212;51.018;13.586;2023-10-31T16:22:30;96640.56;;;13.10;83.03
43155;BME280;34212;51.018;13.586;2023-10-31T16:27:41;96646.34;;;13.07;82.76
43155;BME280;34212;51.018;13.586;2023-10-31T16:32:46;96658.31;;;13.04;82.51
43155;BME280;34212;51.018;13.586;2023-10-31T16:37:49;96677.06;;;13.04;83.12
43155;BME280;34212;51.018;13.586;2023-10-31T16:42:53;96678.91;;;13.04;82.42
43155;BME280;34212;51.018;13.586;2023-10-31T16:48:00;96692.75;;;13.01;82.74
43155;BME280;34212;51.018;13.586;2023-10-31T16:53:05;96686.78;;;12.99;82.45
43155;BME280;34212;51.018;13.586;2023-10-31T16:58:07;96694.44;;;12.95;82.57
43155;BME280;34212;51.018;13.586;2023-10-31T17:03:11;96697.81;;;12.90;82.41
43155;BME280;34212;51.018;13.586;2023-10-31T17:08:15;96713.69;;;12.85;82.13
43155;BME280;34212;51.018;13.586;2023-10-31T17:13:16;96723.16;;;12.63;82.81
43155;BME280;34212;51.018;13.586;2023-10-31T17:18:18;96736.47;;;12.44;83.32
43155;BME280;34212;51.018;13.586;2023-10-31T17:23:20;96736.97;;;12.35;83.61
43155;BME280;34212;51.018;13.586;2023-10-31T17:28:22;96746.22;;;12.32;84.10
43155;BME280;34212;51.018;13.586;2023-10-31T17:33:24;96748.09;;;12.32;84.28
43155;BME280;34212;51.018;13.586;2023-10-31T17:38:29;96752.19;;;12.34;84.39
43155;BME280;34212;51.018;13.586;2023-10-31T17:43:30;96766.56;;;12.40;84.68
43155;BME280;34212;51.018;13.586;2023-10-31T17:48:32;96775.78;;;12.44;84.33
43155;BME280;34212;51.018;13.586;2023-10-31T17:53:36;96777.78;;;12.48;84.62
43155;BME280;34212;51.018;13.586;2023-10-31T17:58:39;96796.88;;;12.52;84.48
43155;BME280;34212;51.018;13.586;2023-10-31T18:03:41;96797.72;;;12.53;83.92
43155;BME280;34212;51.018;13.586;2023-10-31T18:08:42;96798.53;;;12.53;84.15
43155;BME280;34212;51.018;13.586;2023-10-31T18:13:44;96806.13;;;12.56;84.17
43155;BME280;34212;51.018;13.586;2023-10-31T18:18:46;96804.03;;;12.58;83.89
43155;BME280;34212;51.018;13.586;2023-10-31T18:23:50;96809.38;;;12.58;83.85
43155;BME280;34212;51.018;13.586;2023-10-31T18:28:51;96810.81;;;12.61;84.45
43155;BME280;34212;51.018;13.586;2023-10-31T18:33:53;96817.81;;;12.62;83.98
43155;BME280;34212;51.018;13.586;2023-10-31T18:38:54;96823.97;;;12.62;84.10
43155;BME280;34212;51.018;13.586;2023-10-31T18:43:56;96819.22;;;12.64;84.15
43155;BME280;34212;51.018;13.586;2023-10-31T18:49:17;96824.13;;;12.67;83.78
43155;BME280;34212;51.018;13.586;2023-10-31T18:54:19;96823.50;;;12.72;84.19
43155;BME280;34212;51.018;13.586;2023-10-31T18:59:21;96828.63;;;12.74;84.00
43155;BME280;34212;51.018;13.586;2023-10-31T19:04:22;96831.47;;;12.79;83.74
43155;BME280;34212;51.018;13.586;2023-10-31T19:09:24;96848.94;;;12.81;83.00
43155;BME280;34212;51.018;13.586;2023-10-31T19:14:26;96853.69;;;12.79;82.99
43155;BME280;34212;51.018;13.586;2023-10-31T19:19:28;96857.41;;;12.78;83.25
43155;BME280;34212;51.018;13.586;2023-10-31T19:24:29;96866.88;;;12.81;83.33
43155;BME280;34212;51.018;13.586;2023-10-31T19:29:31;96872.22;;;12.81;82.87
43155;BME280;34212;51.018;13.586;2023-10-31T19:34:32;96872.41;;;12.79;82.94
43155;BME280;34212;51.018;13.586;2023-10-31T19:39:34;96877.56;;;12.81;83.05
43155;BME280;34212;51.018;13.586;2023-10-31T19:44:38;96875.69;;;12.81;83.31
43155;BME280;34212;51.018;13.586;2023-10-31T19:49:39;96884.31;;;12.83;83.32
43155;BME280;34212;51.018;13.586;2023-10-31T19:54:41;96893.19;;;12.84;83.29
43155;BME280;34212;51.018;13.586;2023-10-31T19:59:43;96898.53;;;12.84;83.14
43155;BME280;34212;51.018;13.586;2023-10-31T20:04:45;96890.72;;;12.82;82.96
43155;BME280;34212;51.018;13.586;2023-10-31T20:09:47;96899.78;;;12.81;83.33
43155;BME280;34212;51.018;13.586;2023-10-31T20:14:49;96907.19;;;12.79;83.25
43155;BME280;34212;51.018;13.586;2023-10-31T20:20:03;96908.25;;;12.78;83.27
43155;BME280;34212;51.018;13.586;2023-10-31T20:25:05;96906.81;;;12.76;82.79
43155;BME280;34212;51.018;13.586;2023-10-31T20:30:07;96910.53;;;12.75;82.78
43155;BME280;34212;51.018;13.586;2023-10-31T20:35:09;96914.44;;;12.72;82.47
43155;BME280;34212;51.018;13.586;2023-10-31T20:40:11;96924.53;;;12.70;83.26
43155;BME280;34212;51.018;13.586;2023-10-31T20:45:14;96939.78;;;12.69;82.58
43155;BME280;34212;51.018;13.586;2023-10-31T20:50:16;96939.34;;;12.73;82.79
43155;BME280;34212;51.018;13.586;2023-10-31T20:55:18;96944.06;;;12.70;83.12
43155;BME280;34212;51.018;13.586;2023-10-31T21:00:19;96945.13;;;12.69;83.06
43155;BME280;34212;51.018;13.586;2023-10-31T21:05:23;96946.75;;;12.70;83.04
43155;BME280;34212;51.018;13.586;2023-10-31T21:10:25;96949.66;;;12.69;83.12
43155;BME280;34212;51.018;13.586;2023-10-31T21:15:27;96950.50;;;12.63;82.86
43155;BME280;34212;51.018;13.586;2023-10-31T21:20:29;96963.31;;;12.54;82.99
43155;BME280;34212;51.018;13.586;2023-10-31T21:25:30;96978.16;;;12.43;82.88
43155;BME280;34212;51.018;13.586;2023-10-31T21:30:32;96973.06;;;12.35;82.79
43155;BME280;34212;51.018;13.586;2023-10-31T21:35:35;96973.69;;;12.31;83.62
43155;BME280;34212;51.018;13.586;2023-10-31T21:40:36;96981.53;;;12.25;83.16
43155;BME280;34212;51.018;13.586;2023-10-31T21:45:38;96990.16;;;12.21;83.12
43155;BME280;34212;51.018;13.586;2023-10-31T21:50:41;96981.34;;;12.14;83.11
43155;BME280;34212;51.018;13.586;2023-10-31T21:55:43;96991.41;;;12.12;83.32
43155;BME280;34212;51.018;13.586;2023-10-31T22:00:47;96990.19;;;12.08;83.05
43155;BME280;34212;51.018;13.586;2023-10-31T22:05:49;96996.38;;;12.01;83.37
43155;BME280;34212;51.018;13.586;2023-10-31T22:10:51;97006.66;;;11.98;83.48
43155;BME280;34212;51.018;13.586;2023-10-31T22:15:52;97014.91;;;11.96;83.41
43155;BME280;34212;51.018;13.586;2023-10-31T22:20:54;97020.25;;;11.96;83.13
43155;BME280;34212;51.018;13.586;2023-10-31T22:25:55;97018.56;;;11.95;83.16
43155;BME280;34212;51.018;13.586;2023-10-31T22:30:57;97021.47;;;11.94;83.28
43155;BME280;34212;51.018;13.586;2023-10-31T22:35:59;97016.94;;;11.94;83.26
43155;BME280;34212;51.018;13.586;2023-10-31T22:41:00;97012.41;;;11.95;83.47
43155;BME280;34212;51.018;13.586;2023-10-31T22:46:06;97015.31;;;11.93;83.47
43155;BME280;34212;51.018;13.586;2023-10-31T22:51:09;97022.72;;;11.91;83.78
43155;BME280;34212;51.018;13.586;2023-10-31T22:56:11;97025.38;;;11.91;83.71
43155;BME280;34212;51.018;13.586;2023-10-31T23:01:13;97032.34;;;11.92;83.74
43155;BME280;34212;51.018;13.586;2023-10-31T23:06:14;97038.94;;;11.96;83.75
43155;BME280;34212;51.018;13.586;2023-10-31T23:11:16;97034.41;;;11.97;84.14
43155;BME280;34212;51.018;13.586;2023-10-31T23:16:18;97043.25;;;11.97;83.86
43155;BME280;34212;51.018;13.586;2023-10-31T23:21:19;97050.63;;;11.95;83.61
43155;BME280;34212;51.018;13.586;2023-10-31T23:26:21;97047.38;;;11.93;83.96
43155;BME280;34212;51.018;13.586;2023-10-31T23:31:22;97046.53;;;11.93;83.87
43155;BME280;34212;51.018;13.586;2023-10-31T23:36:24;97049.44;;;11.91;84.03
43155;BME280;34212;51.018;13.586;2023-10-31T23:41:25;97053.94;;;11.91;83.64
43155;BME280;34212;51.018;13.586;2023-10-31T23:46:28;97056.41;;;11.92;84.06
43155;BME280;34212;51.018;13.586;2023-10-31T23:51:29;97053.94;;;11.97;84.37
43155;BME280;34212;51.018;13.586;2023-10-31T23:56:31;97051.91;;;11.99;83.88
